الصفحة الرئيسية
METAR-TAF:

METAR-TAF

مطار :

مطار سيلفيو بيتيروسي الدولي

أسونسيون, باراغواي

دائرة عرض: 25-16S, خط طول: 057-38W, ارتفاع: 101 متر

مراقبة الطقس الحالي

تاريخ ووقت الإصدار 25 دقيقة قبل الساعة 03:00UTC
ريح 7 عقدة من الجنوب الغربي
درجة الحرارة 9°درجة مئوية
الرطوبة 87%
ضغط 1027 hPa
الرؤية 10 كم أو أكثر
الغيوم لا تقل 1500 م ولا وجود لمزنة ركامية السحاب الأسود

METAR: SGAS 260300Z 23007KT CAVOK 09/07 Q1027

زمن: 23:25 (03:25 UTC)

توقعات

تاريخ ووقت الإصدار 4ساعات و 42 دقيقة قبل الساعة 22:43UTC
التوقعات صالحة من26 الساعة 00 UTC إلى 27 الساعة 00 UTC
ريح 8 عقدة من الجنوب الغربي
الرؤية 10 كم أو أكثر
غيوم قليلة على ارتفاع 3300 قدم
أصبح
من 26 الساعة 03 UTC إلى 26 الساعة 07 UTC
ريح 10 عقدة من الجنوب
الرؤية 10 كم أو أكثر
غيوم مفككة على ارتفاع 2700 قدم
أصبح
من 26 الساعة 10 UTC إلى 26 الساعة 14 UTC
الرؤية 10 كم أو أكثر
غيوم متفرقة على ارتفاع 2700 قدم

TAF: SGAS 252243Z 2600/2700 23008KT 9999 FEW033 TX15/2618Z TN07/2609Z BECMG 2603/2607 18010KT 9999 BKN027 BECMG 2610/2614 9999 SCT027

أرصاد الطقس والتوقعات من أكثر من 4000 مطار (تقارير الطقس للمطار METAR والتنبؤ بالطقس بالمطارTAF).

المحطات المتاحة هي النقط الصفراء والحمراء على الخريطة.

حرك المؤشر فوق النقطة لمعرفة اسم المحطة.

ثم انقر لمعرفة أرصاد وتوقعات الطقس.

لتغيير الخارطة: اضغط على الأزرار الخضراء مع رمز الصليب الأسود للتكبير. على الزر الأخضر مع شرطة للتصغير، أو على الأسهم الخضراء للخرائط المجاورة.


METAR-TAF: